createdAt,value
2023-03-15T00:00:19.034Z,961.10
2023-03-15T00:01:18.987Z,962.10
2023-03-15T00:02:18.992Z,982.40
2023-03-15T00:03:18.980Z,940.30
2023-03-15T00:04:18.967Z,873.80
2023-03-15T00:05:18.994Z,806.80
2023-03-15T00:06:18.947Z,801.60
2023-03-15T00:07:18.932Z,826.30
2023-03-15T00:08:18.899Z,897.10
2023-03-15T00:09:18.898Z,882.50
2023-03-15T00:10:18.922Z,865.40
2023-03-15T00:11:18.886Z,844.00
2023-03-15T00:12:18.864Z,797.00
2023-03-15T00:13:18.856Z,786.40
2023-03-15T00:14:18.862Z,792.60
2023-03-15T00:15:18.849Z,751.50
2023-03-15T00:16:18.974Z,753.70
2023-03-15T00:17:18.828Z,747.70
2023-03-15T00:18:18.798Z,760.90
2023-03-15T00:19:18.774Z,732.50
2023-03-15T00:20:18.818Z,710.40
2023-03-15T00:21:18.772Z,741.00
2023-03-15T00:22:18.791Z,770.50
2023-03-15T00:23:18.750Z,786.00
2023-03-15T00:24:18.756Z,772.50
2023-03-15T00:25:18.735Z,755.60
2023-03-15T00:26:18.718Z,777.80
2023-03-15T00:27:18.689Z,768.00
2023-03-15T00:28:18.701Z,776.20
2023-03-15T00:29:18.655Z,803.30
2023-03-15T00:30:18.722Z,835.90
2023-03-15T00:31:18.664Z,831.70
2023-03-15T00:32:18.642Z,813.80
2023-03-15T00:33:18.605Z,756.60
2023-03-15T00:34:18.632Z,809.30
2023-03-15T00:35:18.640Z,828.60
2023-03-15T00:36:18.616Z,833.70
2023-03-15T00:37:18.581Z,832.10
2023-03-15T00:38:18.592Z,824.80
2023-03-15T00:39:18.561Z,828.00
2023-03-15T00:40:18.585Z,850.50
2023-03-15T00:41:18.551Z,867.80
2023-03-15T00:42:18.549Z,867.80
2023-03-15T00:43:18.522Z,845.20
2023-03-15T00:44:18.507Z,780.70
2023-03-15T00:45:18.515Z,775.80
2023-03-15T00:46:18.558Z,809.10
2023-03-15T00:47:18.468Z,829.20
2023-03-15T00:48:18.480Z,823.90
2023-03-15T00:49:18.466Z,829.10
2023-03-15T00:50:18.485Z,814.60
2023-03-15T00:51:18.438Z,815.50
2023-03-15T00:52:18.431Z,823.90
2023-03-15T00:53:18.408Z,820.60
2023-03-15T00:54:18.408Z,817.00
2023-03-15T00:55:18.419Z,773.70
2023-03-15T00:56:18.400Z,784.60
2023-03-15T00:57:18.362Z,799.30
2023-03-15T00:58:18.364Z,802.60
2023-03-15T00:59:18.329Z,804.20
2023-03-15T01:00:18.360Z,809.00
2023-03-15T01:01:18.449Z,827.00
2023-03-15T01:02:18.341Z,816.20
2023-03-15T01:03:18.302Z,814.70
2023-03-15T01:04:18.278Z,827.60
2023-03-15T01:05:18.301Z,824.60
2023-03-15T01:06:18.275Z,820.70
2023-03-15T01:07:18.251Z,816.30
2023-03-15T01:08:18.244Z,800.80
2023-03-15T01:09:18.216Z,792.90
2023-03-15T01:10:18.235Z,800.70
2023-03-15T01:11:18.207Z,803.10
2023-03-15T01:12:18.212Z,787.70
2023-03-15T01:13:18.174Z,800.80
2023-03-15T01:14:18.197Z,809.60
2023-03-15T01:15:18.175Z,805.20
2023-03-15T01:16:18.210Z,808.70
2023-03-15T01:17:18.125Z,793.70
2023-03-15T01:18:18.142Z,790.20
2023-03-15T01:19:18.108Z,793.50
2023-03-15T01:20:18.133Z,795.00
2023-03-15T01:21:18.094Z,774.40
2023-03-15T01:22:18.077Z,783.10
2023-03-15T01:23:18.084Z,782.60
2023-03-15T01:24:18.057Z,772.10
2023-03-15T01:25:18.076Z,787.10
2023-03-15T01:26:18.058Z,806.60
2023-03-15T01:27:18.040Z,801.30
2023-03-15T01:28:17.999Z,831.30
2023-03-15T01:29:18.017Z,839.80
2023-03-15T01:30:18.020Z,854.40
2023-03-15T01:31:18.056Z,862.10
2023-03-15T01:32:17.981Z,857.90
2023-03-15T01:33:17.961Z,856.30
2023-03-15T01:34:17.967Z,693.30
2023-03-15T01:35:17.964Z,604.80
2023-03-15T01:36:17.951Z,688.60
2023-03-15T01:37:17.928Z,576.10
2023-03-15T01:38:17.922Z,606.20
2023-03-15T01:39:17.906Z,669.40
2023-03-15T01:40:17.923Z,680.60
2023-03-15T01:41:17.867Z,675.50
2023-03-15T01:42:17.852Z,680.00
2023-03-15T01:43:17.877Z,668.90
2023-03-15T01:44:17.846Z,653.50
2023-03-15T01:45:17.922Z,652.90
2023-03-15T01:46:17.935Z,700.80
2023-03-15T01:47:17.823Z,547.40
2023-03-15T01:48:17.782Z,517.20
2023-03-15T01:49:17.772Z,646.80
2023-03-15T01:50:17.796Z,648.40
2023-03-15T01:51:17.762Z,645.30
2023-03-15T01:52:17.777Z,642.60
2023-03-15T01:53:17.739Z,641.30
2023-03-15T01:54:17.751Z,623.60
2023-03-15T01:55:17.763Z,640.60
2023-03-15T01:56:17.716Z,770.20
2023-03-15T01:57:17.697Z,872.60
2023-03-15T01:58:17.695Z,636.40
2023-03-15T01:59:17.667Z,583.50
2023-03-15T02:00:17.711Z,679.30
2023-03-15T02:01:17.675Z,901.80
2023-03-15T02:02:17.694Z,820.20
2023-03-15T02:03:17.624Z,705.90
2023-03-15T02:04:17.633Z,691.40
2023-03-15T02:05:17.645Z,769.00
2023-03-15T02:06:17.594Z,769.80
2023-03-15T02:07:17.607Z,779.00
2023-03-15T02:08:17.581Z,882.90
2023-03-15T02:09:17.585Z,878.80
2023-03-15T02:10:17.583Z,891.60
2023-03-15T02:11:17.559Z,878.20
2023-03-15T02:12:17.535Z,823.50
2023-03-15T02:13:17.522Z,824.20
2023-03-15T02:14:17.526Z,827.90
2023-03-15T02:15:17.544Z,843.70
2023-03-15T02:16:17.566Z,871.70
2023-03-15T02:17:17.468Z,892.50
2023-03-15T02:18:17.485Z,902.80
2023-03-15T02:19:17.441Z,941.80
2023-03-15T02:20:17.483Z,972.90
2023-03-15T02:21:17.432Z,981.90
2023-03-15T02:22:17.433Z,917.30
2023-03-15T02:23:17.419Z,902.70
2023-03-15T02:24:17.414Z,860.70
2023-03-15T02:25:17.424Z,836.90
2023-03-15T02:26:17.374Z,821.90
2023-03-15T02:27:17.417Z,799.40
2023-03-15T02:28:17.369Z,728.80
2023-03-15T02:29:17.352Z,713.80
2023-03-15T02:30:17.385Z,764.00
2023-03-15T02:31:17.361Z,884.00
2023-03-15T02:32:17.323Z,837.50
2023-03-15T02:33:17.346Z,834.20
2023-03-15T02:34:17.292Z,911.30
2023-03-15T02:35:17.322Z,860.00
2023-03-15T02:36:17.283Z,884.80
2023-03-15T02:37:17.285Z,862.60
2023-03-15T02:38:17.256Z,878.90
2023-03-15T02:39:17.266Z,872.30
2023-03-15T02:40:17.270Z,844.50
2023-03-15T02:41:17.226Z,822.40
2023-03-15T02:42:17.220Z,861.50
2023-03-15T02:43:17.215Z,856.80
2023-03-15T02:44:17.202Z,828.60
2023-03-15T02:45:17.217Z,831.60
2023-03-15T02:46:17.211Z,848.00
2023-03-15T02:47:17.181Z,822.50
2023-03-15T02:48:17.143Z,806.00
2023-03-15T02:49:17.117Z,793.90
2023-03-15T02:50:17.144Z,803.50
2023-03-15T02:51:17.130Z,790.20
2023-03-15T02:52:17.103Z,781.00
2023-03-15T02:53:17.092Z,777.00
2023-03-15T02:54:17.076Z,834.70
2023-03-15T02:55:17.096Z,801.80
2023-03-15T02:56:17.067Z,849.00
2023-03-15T02:57:17.064Z,840.40
2023-03-15T02:58:17.042Z,823.80
2023-03-15T02:59:17.038Z,831.70
2023-03-15T03:00:17.084Z,825.00
2023-03-15T03:01:17.179Z,862.90
2023-03-15T03:02:17.043Z,859.70
2023-03-15T03:03:16.984Z,859.70
2023-03-15T03:04:16.982Z,860.40
2023-03-15T03:05:17.000Z,855.50
2023-03-15T03:06:16.966Z,868.00
2023-03-15T03:07:16.938Z,858.10
2023-03-15T03:08:16.937Z,886.00
2023-03-15T03:09:16.918Z,900.00
2023-03-15T03:10:16.949Z,882.20
2023-03-15T03:11:16.890Z,895.90
2023-03-15T03:12:16.877Z,899.40
2023-03-15T03:13:16.876Z,885.30
2023-03-15T03:14:16.875Z,879.90
2023-03-15T03:15:16.888Z,919.10
2023-03-15T03:16:16.868Z,922.40
2023-03-15T03:17:16.852Z,906.10
2023-03-15T03:18:16.857Z,947.20
2023-03-15T03:19:16.789Z,963.50
2023-03-15T03:20:16.818Z,934.10
2023-03-15T03:21:16.774Z,918.90
2023-03-15T03:22:16.782Z,776.40
2023-03-15T03:23:16.807Z,849.60
2023-03-15T03:24:16.755Z,879.10
2023-03-15T03:25:16.784Z,871.90
2023-03-15T03:26:16.994Z,855.10
2023-03-15T03:27:16.722Z,807.30
2023-03-15T03:28:16.707Z,683.00
2023-03-15T03:29:16.946Z,743.70
2023-03-15T03:30:16.721Z,853.50
2023-03-15T03:31:16.707Z,815.80
2023-03-15T03:32:16.676Z,647.80
2023-03-15T03:33:16.637Z,629.30
2023-03-15T03:34:16.668Z,679.50
2023-03-15T03:35:16.690Z,510.00
2023-03-15T03:36:16.622Z,482.00
2023-03-15T03:37:16.613Z,596.10
2023-03-15T03:38:16.613Z,811.40
2023-03-15T03:39:16.605Z,841.00
2023-03-15T03:40:16.619Z,827.10
2023-03-15T03:41:16.568Z,781.00
2023-03-15T03:42:16.553Z,728.40
2023-03-15T03:43:16.552Z,689.30
2023-03-15T03:44:16.552Z,647.90
2023-03-15T03:45:16.548Z,629.30
2023-03-15T03:46:16.538Z,610.00
2023-03-15T03:47:16.500Z,599.00
2023-03-15T03:48:16.496Z,587.10
2023-03-15T03:49:16.482Z,559.40
2023-03-15T03:50:16.513Z,539.80
2023-03-15T03:51:16.438Z,534.00
2023-03-15T03:52:16.439Z,484.60
2023-03-15T03:53:16.416Z,531.60
2023-03-15T03:54:17.689Z,570.30
2023-03-15T03:55:16.458Z,570.90
2023-03-15T03:56:16.408Z,707.50
2023-03-15T03:57:16.397Z,558.30
2023-03-15T03:58:16.392Z,548.60
2023-03-15T03:59:16.374Z,555.80
2023-03-15T04:00:16.390Z,572.90
2023-03-15T04:01:16.347Z,628.70
2023-03-15T04:02:16.367Z,682.60
2023-03-15T04:03:16.371Z,477.40
2023-03-15T04:04:16.351Z,525.60
2023-03-15T04:05:16.327Z,600.90
2023-03-15T04:06:16.290Z,631.30
2023-03-15T04:07:17.157Z,563.20
2023-03-15T04:08:16.279Z,566.70
2023-03-15T04:09:16.246Z,571.60
2023-03-15T04:10:16.277Z,708.50
2023-03-15T04:11:16.227Z,693.50
2023-03-15T04:12:16.263Z,694.60
2023-03-15T04:13:16.216Z,688.10
2023-03-15T04:14:16.217Z,681.30
2023-03-15T04:15:16.239Z,576.70
2023-03-15T04:16:16.243Z,570.50
2023-03-15T04:17:16.163Z,713.40
2023-03-15T04:18:16.175Z,608.60
2023-03-15T04:19:16.150Z,585.50
2023-03-15T04:20:16.174Z,582.50
2023-03-15T04:21:16.133Z,586.40
2023-03-15T04:22:16.108Z,494.30
2023-03-15T04:23:16.093Z,483.90
2023-03-15T04:24:16.089Z,599.20
2023-03-15T04:25:16.094Z,581.10
2023-03-15T04:26:16.068Z,583.60
2023-03-15T04:27:16.082Z,587.90
2023-03-15T04:28:16.052Z,548.70
2023-03-15T04:29:16.040Z,505.40
2023-03-15T04:30:16.075Z,546.50
2023-03-15T04:31:16.084Z,561.60
2023-03-15T04:32:16.012Z,610.20
2023-03-15T04:33:16.000Z,621.20
2023-03-15T04:34:15.994Z,624.80
2023-03-15T04:35:16.033Z,635.80
2023-03-15T04:36:15.977Z,479.50
2023-03-15T04:37:15.982Z,498.40
2023-03-15T04:38:15.944Z,554.10
2023-03-15T04:39:15.944Z,543.80
2023-03-15T04:40:15.966Z,567.70
2023-03-15T04:41:15.914Z,568.70
2023-03-15T04:42:15.894Z,536.80
2023-03-15T04:43:15.903Z,500.10
2023-03-15T04:44:15.891Z,518.80
2023-03-15T04:45:15.908Z,596.10
2023-03-15T04:46:15.869Z,579.20
2023-03-15T04:47:15.862Z,561.80
2023-03-15T04:48:15.876Z,560.40
2023-03-15T04:49:15.823Z,558.20
2023-03-15T04:50:15.828Z,552.20
2023-03-15T04:51:15.800Z,551.70
2023-03-15T04:52:15.794Z,568.80
2023-03-15T04:53:15.797Z,587.00
2023-03-15T04:54:15.786Z,579.60
2023-03-15T04:55:15.794Z,573.00
2023-03-15T04:56:15.730Z,422.40
2023-03-15T04:57:15.742Z,446.30
2023-03-15T04:58:15.747Z,466.80
2023-03-15T04:59:15.727Z,470.90
2023-03-15T05:00:15.739Z,446.70
2023-03-15T05:01:15.755Z,429.40
2023-03-15T05:02:15.737Z,424.80
2023-03-15T05:03:15.685Z,424.80
2023-03-15T05:04:15.657Z,447.20
2023-03-15T05:05:15.690Z,507.50
2023-03-15T05:06:15.633Z,534.80
2023-03-15T05:07:15.628Z,531.90
2023-03-15T05:08:15.616Z,520.60
2023-03-15T05:09:15.624Z,511.50
2023-03-15T05:10:15.641Z,400.60
2023-03-15T05:11:15.604Z,389.10
2023-03-15T05:12:15.588Z,612.50
2023-03-15T05:13:15.564Z,486.90
2023-03-15T05:14:15.559Z,440.60
2023-03-15T05:15:15.711Z,370.10
2023-03-15T05:16:15.587Z,385.60
2023-03-15T05:17:15.530Z,471.70
2023-03-15T05:18:15.516Z,488.00
2023-03-15T05:19:15.503Z,455.20
2023-03-15T05:20:15.529Z,530.90
2023-03-15T05:21:15.481Z,452.00
2023-03-15T05:22:15.472Z,371.40
2023-03-15T05:23:15.599Z,367.40
2023-03-15T05:24:15.549Z,511.20
2023-03-15T05:25:15.475Z,315.60
2023-03-15T05:26:15.418Z,350.10
2023-03-15T05:27:15.418Z,357.50
2023-03-15T05:28:15.398Z,339.30
2023-03-15T05:29:15.417Z,351.50
2023-03-15T05:30:15.444Z,378.40
2023-03-15T05:31:15.510Z,345.40
2023-03-15T05:32:15.360Z,365.50
2023-03-15T05:33:15.374Z,325.10
2023-03-15T05:34:15.362Z,350.50
2023-03-15T05:35:15.382Z,354.60
2023-03-15T05:36:15.338Z,362.70
2023-03-15T05:37:15.311Z,373.70
2023-03-15T05:38:15.313Z,356.00
2023-03-15T05:39:15.277Z,398.30
2023-03-15T05:40:15.319Z,349.60
2023-03-15T05:41:15.260Z,340.30
2023-03-15T05:42:15.262Z,400.40
2023-03-15T05:43:15.254Z,415.90
2023-03-15T05:44:15.218Z,353.40
2023-03-15T05:45:15.244Z,346.90
2023-03-15T05:46:15.324Z,345.20
2023-03-15T05:47:15.197Z,389.70
2023-03-15T05:48:15.189Z,405.50
2023-03-15T05:49:15.170Z,407.40
2023-03-15T05:50:15.221Z,376.60
2023-03-15T05:51:15.168Z,482.10
2023-03-15T05:52:15.143Z,465.30
2023-03-15T05:53:15.128Z,456.80
2023-03-15T05:54:15.117Z,520.50
2023-03-15T05:55:15.127Z,584.60
2023-03-15T05:56:15.077Z,952.70
2023-03-15T05:57:15.058Z,890.30
2023-03-15T05:58:15.056Z,975.70
2023-03-15T05:59:15.070Z,227.40
2023-03-15T06:00:15.069Z,438.60
2023-03-15T06:01:15.043Z,417.10
2023-03-15T06:02:15.048Z,129.10
2023-03-15T06:03:15.079Z,520.60
2023-03-15T06:04:15.024Z,317.80
2023-03-15T06:05:15.057Z,200.50
2023-03-15T06:06:14.966Z,362.20
2023-03-15T06:07:14.989Z,304.00
2023-03-15T06:08:14.951Z,591.70
2023-03-15T06:09:14.959Z,576.40
2023-03-15T06:10:14.998Z,195.60
2023-03-15T06:11:14.938Z,653.00
2023-03-15T06:12:14.916Z,487.00
2023-03-15T06:13:17.822Z,163.10
2023-03-15T06:14:14.872Z,158.30
2023-03-15T06:15:14.939Z,214.70
2023-03-15T06:16:14.962Z,178.20
2023-03-15T06:17:14.872Z,190.40
2023-03-15T06:18:14.868Z,258.00
2023-03-15T06:19:14.858Z,308.90
2023-03-15T06:20:14.888Z,209.70
2023-03-15T06:21:14.821Z,293.40
2023-03-15T06:22:14.798Z,347.10
2023-03-15T06:23:14.811Z,346.80
2023-03-15T06:24:14.783Z,245.10
2023-03-15T06:25:14.816Z,233.90
2023-03-15T06:26:14.766Z,205.10
2023-03-15T06:27:14.777Z,153.70
2023-03-15T06:28:14.762Z,210.70
2023-03-15T06:29:14.736Z,250.60
2023-03-15T06:30:16.949Z,273.70
2023-03-15T06:31:14.880Z,272.60
2023-03-15T06:32:14.690Z,331.20
2023-03-15T06:33:14.679Z,376.80
2023-03-15T06:34:14.672Z,304.00
2023-03-15T06:35:14.721Z,312.10
2023-03-15T06:36:14.659Z,258.10
2023-03-15T06:37:16.353Z,219.20
2023-03-15T06:38:15.617Z,229.50
2023-03-15T06:39:14.631Z,280.80
2023-03-15T06:40:14.646Z,80.40
2023-03-15T06:41:14.623Z,210.20
2023-03-15T06:42:14.586Z,148.90
2023-03-15T06:43:14.601Z,142.50
2023-03-15T06:44:14.562Z,132.30
2023-03-15T06:45:14.602Z,60.70
2023-03-15T06:46:14.642Z,63.00
2023-03-15T06:47:14.532Z,162.40
2023-03-15T06:48:14.523Z,198.60
2023-03-15T06:49:14.494Z,212.60
2023-03-15T06:50:14.539Z,233.10
2023-03-15T06:51:14.468Z,315.60
2023-03-15T06:52:14.493Z,308.60
2023-03-15T06:53:14.460Z,218.40
2023-03-15T06:54:14.456Z,230.50
2023-03-15T06:55:14.453Z,366.10
2023-03-15T06:56:14.414Z,321.40
2023-03-15T06:57:14.402Z,1999.90
2023-03-15T06:58:14.416Z,210.40
2023-03-15T06:59:14.413Z,146.00
2023-03-15T07:00:14.440Z,156.30
2023-03-15T07:01:14.486Z,158.30
2023-03-15T07:02:14.368Z,245.90
2023-03-15T07:03:14.346Z,154.50
2023-03-15T07:04:14.332Z,157.80
2023-03-15T07:05:14.413Z,149.10
2023-03-15T07:06:14.350Z,154.80
2023-03-15T07:07:14.308Z,124.30
2023-03-15T07:08:14.296Z,60.00
2023-03-15T07:09:14.305Z,61.10
2023-03-15T07:10:14.330Z,50.00
2023-03-15T07:11:14.276Z,43.60
2023-03-15T07:12:14.256Z,45.40
2023-03-15T07:13:14.255Z,50.50
2023-03-15T07:14:14.208Z,61.20
2023-03-15T07:15:16.101Z,60.70
2023-03-15T07:16:14.272Z,65.80
2023-03-15T07:17:14.197Z,67.00
2023-03-15T07:18:14.220Z,84.60
2023-03-15T07:19:14.158Z,94.60
2023-03-15T07:20:14.195Z,110.90
2023-03-15T07:21:14.171Z,131.50
2023-03-15T07:22:14.179Z,143.10
2023-03-15T07:23:14.147Z,122.80
2023-03-15T07:24:14.098Z,125.70
2023-03-15T07:25:14.128Z,116.90
2023-03-15T07:26:14.078Z,120.40
2023-03-15T07:27:16.134Z,124.60
2023-03-15T07:28:14.061Z,140.80
2023-03-15T07:29:14.072Z,186.60
2023-03-15T07:30:14.102Z,169.60
2023-03-15T07:31:14.073Z,75.70
2023-03-15T07:32:14.073Z,60.20
2023-03-15T07:33:14.049Z,55.60
2023-03-15T07:34:14.006Z,53.60
2023-03-15T07:35:14.045Z,63.20
2023-03-15T07:36:13.981Z,57.10
2023-03-15T07:37:13.991Z,40.50
2023-03-15T07:38:13.961Z,45.80
2023-03-15T07:39:13.957Z,42.20
2023-03-15T07:40:13.977Z,26.10
2023-03-15T07:41:13.908Z,18.30
2023-03-15T07:42:13.915Z,19.70
2023-03-15T07:43:13.894Z,21.50
2023-03-15T07:44:13.886Z,24.90
2023-03-15T07:45:13.940Z,24.70
2023-03-15T07:46:13.924Z,157.60
2023-03-15T07:47:13.846Z,74.00
2023-03-15T07:48:13.859Z,70.10
2023-03-15T07:49:13.835Z,94.50
2023-03-15T07:50:16.835Z,110.10
2023-03-15T07:51:13.833Z,49.80
2023-03-15T07:52:13.791Z,16.10
2023-03-15T07:53:13.804Z,11.30
2023-03-15T07:54:13.786Z,19.10
2023-03-15T07:55:13.786Z,25.40
2023-03-15T07:56:13.737Z,30.20
2023-03-15T07:57:13.728Z,46.00
2023-03-15T07:58:13.721Z,62.10
2023-03-15T07:59:13.715Z,45.30
2023-03-15T08:00:13.747Z,35.60
2023-03-15T08:01:13.725Z,55.30
2023-03-15T08:02:13.746Z,82.20
2023-03-15T08:03:13.705Z,180.80
2023-03-15T08:04:13.656Z,146.40
2023-03-15T08:05:13.696Z,1316.60
2023-03-15T08:06:13.630Z,138.30
2023-03-15T08:07:13.608Z,1999.90
2023-03-15T08:08:13.593Z,901.70
2023-03-15T08:09:13.610Z,138.80
2023-03-15T08:10:13.636Z,1999.90
2023-03-15T08:11:13.584Z,1999.90
2023-03-15T08:12:13.583Z,165.00
2023-03-15T08:13:13.574Z,169.10
2023-03-15T08:14:13.549Z,202.40
2023-03-15T08:15:13.555Z,249.60
2023-03-15T08:16:13.580Z,437.50
2023-03-15T08:17:13.523Z,363.30
2023-03-15T08:18:13.489Z,364.20
2023-03-15T08:19:13.532Z,345.30
2023-03-15T08:20:13.490Z,250.80
2023-03-15T08:21:13.457Z,83.40
2023-03-15T08:22:13.454Z,68.50
2023-03-15T08:23:13.455Z,88.50
2023-03-15T08:24:13.496Z,132.50
2023-03-15T08:25:13.483Z,149.00
2023-03-15T08:26:13.383Z,127.70
2023-03-15T08:27:13.398Z,163.20
2023-03-15T08:28:13.365Z,133.00
2023-03-15T08:29:13.382Z,53.30
2023-03-15T08:30:13.380Z,50.00
2023-03-15T08:31:13.393Z,33.30
2023-03-15T08:32:13.336Z,29.40
2023-03-15T08:33:13.336Z,35.80
2023-03-15T08:34:13.302Z,45.10
2023-03-15T08:35:15.705Z,66.50
2023-03-15T08:36:13.378Z,78.30
2023-03-15T08:37:13.297Z,78.20
2023-03-15T08:38:13.270Z,88.20
2023-03-15T08:39:13.246Z,52.90
2023-03-15T08:40:13.274Z,53.30
2023-03-15T08:41:13.242Z,55.50
2023-03-15T08:42:13.230Z,60.70
2023-03-15T08:43:13.216Z,61.40
2023-03-15T08:44:13.226Z,55.70
2023-03-15T08:45:13.259Z,57.30
2023-03-15T08:46:13.226Z,55.70
2023-03-15T08:47:13.174Z,56.00
2023-03-15T08:48:13.151Z,59.50
2023-03-15T08:49:13.161Z,69.30
2023-03-15T08:50:13.178Z,70.80
2023-03-15T08:51:13.144Z,72.80
2023-03-15T08:52:13.116Z,54.10
2023-03-15T08:53:13.122Z,56.20
2023-03-15T08:54:13.093Z,70.50
2023-03-15T08:55:13.136Z,73.70
2023-03-15T08:56:13.069Z,51.30
2023-03-15T08:57:13.040Z,30.50
2023-03-15T08:58:13.038Z,16.40
2023-03-15T08:59:19.428Z,20.80
2023-03-15T09:00:14.056Z,22.30
2023-03-15T09:01:13.006Z,24.20
2023-03-15T09:02:13.034Z,15.40
2023-03-15T09:03:12.996Z,11.00
2023-03-15T09:04:13.063Z,9.40
2023-03-15T09:05:12.995Z,15.70
2023-03-15T09:06:12.960Z,15.00
2023-03-15T09:07:12.956Z,13.20
2023-03-15T09:08:12.944Z,15.00
2023-03-15T09:09:12.907Z,13.80
2023-03-15T09:10:12.934Z,12.10
2023-03-15T09:11:12.876Z,10.50
2023-03-15T09:12:12.894Z,14.30
2023-03-15T09:13:12.884Z,13.00
2023-03-15T09:14:12.868Z,12.30
2023-03-15T09:15:12.910Z,19.20
2023-03-15T09:16:12.879Z,8.90
2023-03-15T09:17:12.877Z,9.70
2023-03-15T09:18:12.799Z,10.50
2023-03-15T09:19:12.803Z,9.70
2023-03-15T09:20:12.827Z,8.90
2023-03-15T09:21:12.780Z,8.30
2023-03-15T09:22:16.913Z,8.00
2023-03-15T09:23:13.771Z,8.10
2023-03-15T09:24:12.826Z,8.20
2023-03-15T09:25:12.794Z,8.30
2023-03-15T09:26:12.733Z,7.70
2023-03-15T09:27:12.708Z,8.80
2023-03-15T09:28:12.701Z,9.70
2023-03-15T09:29:12.686Z,8.40
2023-03-15T09:30:12.735Z,8.10
2023-03-15T09:31:12.713Z,8.50
2023-03-15T09:32:12.681Z,8.20
2023-03-15T09:33:12.682Z,8.40
2023-03-15T09:34:12.655Z,8.90
2023-03-15T09:35:12.661Z,9.10
2023-03-15T09:36:12.614Z,9.70
2023-03-15T09:37:12.617Z,6.40
2023-03-15T09:38:12.603Z,5.90
2023-03-15T09:39:12.573Z,8.70
2023-03-15T09:40:12.604Z,10.10
2023-03-15T09:41:12.563Z,7.60
2023-03-15T09:42:12.559Z,8.30
2023-03-15T09:43:12.551Z,8.30
2023-03-15T09:44:12.555Z,8.90
2023-03-15T09:45:12.531Z,8.60
2023-03-15T09:46:12.521Z,7.60
2023-03-15T09:47:12.508Z,7.60
2023-03-15T09:48:12.479Z,8.20
2023-03-15T09:49:12.484Z,7.70
2023-03-15T09:50:12.519Z,7.20
2023-03-15T09:51:12.454Z,16.40
2023-03-15T09:52:12.443Z,9.80
2023-03-15T09:53:12.459Z,9.60
2023-03-15T09:54:12.439Z,9.70
2023-03-15T09:55:12.492Z,7.00
2023-03-15T09:56:12.397Z,5.90
2023-03-15T09:57:12.362Z,5.90
2023-03-15T09:58:12.357Z,6.70
2023-03-15T09:59:12.339Z,6.70
2023-03-15T10:00:12.385Z,7.30
2023-03-15T10:01:12.412Z,7.60
2023-03-15T10:02:12.336Z,7.20
2023-03-15T10:03:12.389Z,6.60
2023-03-15T10:04:12.309Z,7.30
2023-03-15T10:05:12.329Z,11.70
2023-03-15T10:06:12.279Z,13.10
2023-03-15T10:07:12.273Z,22.60
2023-03-15T10:08:12.267Z,20.90
2023-03-15T10:09:12.253Z,18.90
2023-03-15T10:10:12.220Z,15.90
2023-03-15T10:11:12.280Z,11.90
2023-03-15T10:12:12.217Z,9.30
2023-03-15T10:13:12.208Z,9.00
2023-03-15T10:14:12.210Z,10.80
2023-03-15T10:15:12.169Z,12.70
2023-03-15T10:16:12.322Z,14.90
2023-03-15T10:17:12.194Z,10.80
2023-03-15T10:18:12.171Z,9.60
2023-03-15T10:19:12.145Z,11.40
2023-03-15T10:20:12.147Z,12.20
2023-03-15T10:21:12.144Z,12.20
2023-03-15T10:22:12.086Z,10.10
2023-03-15T10:23:12.090Z,10.60
2023-03-15T10:24:12.129Z,12.00
2023-03-15T10:25:12.067Z,9.80
2023-03-15T10:26:13.333Z,9.40
2023-03-15T10:27:12.048Z,9.30
2023-03-15T10:28:12.018Z,9.10
2023-03-15T10:29:11.996Z,10.60
2023-03-15T10:30:11.993Z,15.50
2023-03-15T10:31:16.273Z,10.80
2023-03-15T10:32:12.999Z,8.70
2023-03-15T10:33:12.015Z,11.20
2023-03-15T10:34:11.994Z,13.50
2023-03-15T10:35:11.976Z,47.40
2023-03-15T10:36:12.035Z,50.30
2023-03-15T10:37:11.925Z,72.30
2023-03-15T10:38:11.916Z,56.10
2023-03-15T10:39:11.898Z,44.30
2023-03-15T10:40:11.873Z,28.90
2023-03-15T10:41:15.259Z,19.60
2023-03-15T10:42:11.881Z,14.50
2023-03-15T10:43:11.834Z,21.70
2023-03-15T10:44:11.832Z,32.90
2023-03-15T10:45:11.814Z,43.90
2023-03-15T10:46:11.936Z,49.30
2023-03-15T10:47:22.447Z,47.10
2023-03-15T10:48:12.782Z,46.80
2023-03-15T10:49:11.806Z,32.70
2023-03-15T10:50:11.779Z,21.30
2023-03-15T10:51:12.617Z,19.50
2023-03-15T10:52:11.767Z,27.70
2023-03-15T10:53:11.744Z,13.90
2023-03-15T10:54:11.727Z,9.90
2023-03-15T10:55:11.725Z,10.80
2023-03-15T10:56:11.747Z,10.80
2023-03-15T10:57:11.690Z,13.00
2023-03-15T10:58:11.678Z,18.20
2023-03-15T10:59:13.083Z,14.70
2023-03-15T11:00:11.652Z,14.10
2023-03-15T11:01:11.694Z,10.60
2023-03-15T11:02:11.658Z,11.60
2023-03-15T11:03:11.660Z,12.40
2023-03-15T11:04:11.611Z,12.00
2023-03-15T11:05:11.601Z,13.60
2023-03-15T11:06:11.607Z,12.50
2023-03-15T11:07:11.572Z,12.30
2023-03-15T11:08:11.573Z,13.40
2023-03-15T11:09:11.547Z,8.90
2023-03-15T11:10:11.544Z,8.50
2023-03-15T11:11:11.579Z,6.40
2023-03-15T11:12:11.527Z,8.10
2023-03-15T11:13:11.506Z,10.10
2023-03-15T11:14:11.481Z,10.30
2023-03-15T11:15:11.487Z,19.80
2023-03-15T11:16:11.610Z,11.60
2023-03-15T11:17:11.513Z,13.60
2023-03-15T11:18:11.475Z,20.50
2023-03-15T11:19:11.423Z,21.00
2023-03-15T11:20:11.432Z,20.10
2023-03-15T11:21:11.462Z,23.50
2023-03-15T11:22:11.418Z,11.60
2023-03-15T11:23:11.379Z,6.70
2023-03-15T11:24:11.386Z,8.50
2023-03-15T11:25:11.366Z,6.60
2023-03-15T11:26:14.098Z,8.60
2023-03-15T11:27:12.357Z,24.90
2023-03-15T11:28:11.330Z,14.00
2023-03-15T11:29:11.299Z,10.20
2023-03-15T11:30:11.302Z,9.90
2023-03-15T11:31:11.402Z,5.70
2023-03-15T11:32:11.308Z,5.90
2023-03-15T11:33:11.279Z,7.00
2023-03-15T11:34:11.278Z,6.20
2023-03-15T11:35:11.248Z,6.10
2023-03-15T11:36:12.440Z,6.70
2023-03-15T11:37:13.112Z,6.40
2023-03-15T11:38:15.198Z,7.00
2023-03-15T11:39:11.207Z,9.00
2023-03-15T11:40:12.596Z,9.90
2023-03-15T11:41:11.211Z,5.90
2023-03-15T11:42:11.331Z,6.20
2023-03-15T11:43:11.186Z,7.00
2023-03-15T11:44:11.158Z,12.70
2023-03-15T11:45:11.141Z,11.90
2023-03-15T11:46:11.302Z,10.80
2023-03-15T11:47:11.145Z,9.30
2023-03-15T11:48:11.124Z,8.50
2023-03-15T11:49:11.096Z,6.60
2023-03-15T11:50:11.096Z,7.90
2023-03-15T11:51:11.124Z,9.50
2023-03-15T11:52:11.078Z,7.30
2023-03-15T11:53:11.051Z,8.00
2023-03-15T11:54:11.049Z,8.00
2023-03-15T11:55:11.039Z,8.70
2023-03-15T11:56:11.116Z,6.00
2023-03-15T11:57:11.033Z,5.70
2023-03-15T11:58:11.001Z,5.70
2023-03-15T11:59:11.004Z,6.10
2023-03-15T12:00:11.000Z,5.70
2023-03-15T12:01:10.980Z,9.50
2023-03-15T12:02:11.150Z,9.40
2023-03-15T12:03:10.952Z,9.90
2023-03-15T12:04:10.932Z,9.70
2023-03-15T12:05:17.965Z,10.10
2023-03-15T12:06:11.945Z,11.00
2023-03-15T12:07:10.891Z,9.80
2023-03-15T12:08:10.926Z,12.40
2023-03-15T12:09:10.871Z,15.90
2023-03-15T12:10:10.905Z,18.10
2023-03-15T12:11:10.877Z,25.00
2023-03-15T12:12:10.846Z,34.00
2023-03-15T12:13:10.886Z,27.10
2023-03-15T12:14:10.815Z,21.60
2023-03-15T12:15:10.808Z,19.80
2023-03-15T12:16:10.882Z,32.70
2023-03-15T12:17:10.788Z,58.90
2023-03-15T12:18:10.792Z,46.30
2023-03-15T12:19:10.750Z,21.30
2023-03-15T12:20:10.781Z,14.10
2023-03-15T12:21:10.771Z,13.80
2023-03-15T12:22:10.752Z,14.00
2023-03-15T12:23:10.714Z,13.80
2023-03-15T12:24:10.717Z,13.60
2023-03-15T12:25:10.691Z,11.10
2023-03-15T12:26:10.735Z,10.00
2023-03-15T12:27:10.680Z,13.50
2023-03-15T12:28:10.681Z,21.40
2023-03-15T12:29:10.634Z,21.90
2023-03-15T12:30:10.627Z,25.60
2023-03-15T12:31:10.672Z,29.50
2023-03-15T12:32:10.624Z,39.60
2023-03-15T12:33:10.585Z,40.90
2023-03-15T12:34:10.599Z,29.00
2023-03-15T12:35:10.562Z,20.90
2023-03-15T12:36:10.626Z,24.90
2023-03-15T12:37:10.569Z,23.70
2023-03-15T12:38:10.542Z,36.00
2023-03-15T12:39:10.527Z,41.30
2023-03-15T12:40:10.519Z,38.20